Time;durP1;ratioP1;P1;durP2;ratioP2;P2;SDS_P1;SDS_P2;PMS_P1;PMS_P2;Temp;Humidity;BMP_temperature;BMP_pressure;BME280_temperature;BME280_humidity;BME280_pressure;Samples;Min_cycle;Max_cycle;Signal;HPM_P1;HPM_P2
2023/12/12 00:00:38;;;;;;;6.93;2.00;;;8.30;99.90;;;;;;5098962;28;20250;-81
2023/12/12 00:03:04;;;;;;;7.67;2.57;;;8.30;99.90;;;;;;5097733;28;20175;-80
2023/12/12 00:05:29;;;;;;;12.00;2.43;;;8.30;99.90;;;;;;5099559;28;20250;-80
2023/12/12 00:07:55;;;;;;;10.57;2.87;;;8.20;99.90;;;;;;5097751;28;20685;-80
2023/12/12 00:10:21;;;;;;;10.27;2.40;;;8.20;99.90;;;;;;5098829;28;20174;-80
2023/12/12 00:12:46;;;;;;;6.17;2.00;;;8.20;99.90;;;;;;5099853;28;20174;-81
2023/12/12 00:15:12;;;;;;;7.97;2.27;;;8.20;99.90;;;;;;5100323;28;20198;-80
2023/12/12 00:17:38;;;;;;;8.47;1.97;;;8.20;99.90;;;;;;5100199;28;20191;-80
2023/12/12 00:20:07;;;;;;;10.90;2.83;;;8.20;99.90;;;;;;5098169;28;20657;-81
2023/12/12 00:22:33;;;;;;;7.73;2.07;;;8.20;99.90;;;;;;5098999;28;20166;-80
2023/12/12 00:24:58;;;;;;;9.80;2.30;;;8.30;99.90;;;;;;5100311;28;20176;-80
2023/12/12 00:27:24;;;;;;;11.30;2.40;;;8.30;99.90;;;;;;5099719;28;20549;-79
2023/12/12 00:29:49;;;;;;;8.10;2.40;;;8.20;99.90;;;;;;5101399;28;20174;-80
2023/12/12 00:32:15;;;;;;;13.30;2.93;;;8.20;99.90;;;;;;5102415;28;20327;-80
2023/12/12 00:34:40;;;;;;;9.77;2.40;;;8.20;99.90;;;;;;5101316;28;20198;-80
2023/12/12 00:37:06;;;;;;;9.47;2.00;;;8.20;99.90;;;;;;5101050;28;20186;-80
2023/12/12 00:39:36;;;;;;;7.00;2.13;;;8.20;99.90;;;;;;5100693;28;20177;-80
2023/12/12 00:42:03;;;;;;;13.07;2.20;;;8.20;99.90;;;;;;5100039;28;20166;-80
2023/12/12 00:44:29;;;;;;;8.13;1.97;;;8.20;99.90;;;;;;5099634;28;20166;-79
2023/12/12 00:46:54;;;;;;;7.37;1.93;;;8.20;99.90;;;;;;5099571;28;20194;-80
2023/12/12 00:49:20;;;;;;;8.43;1.80;;;8.10;99.90;;;;;;5100294;28;20568;-80
2023/12/12 00:51:45;;;;;;;9.17;1.83;;;8.10;99.90;;;;;;5100508;28;20174;-80
2023/12/12 00:54:11;;;;;;;6.40;1.90;;;8.10;99.90;;;;;;5099786;28;20698;-80
2023/12/12 00:56:37;;;;;;;11.77;2.20;;;8.10;99.90;;;;;;5102100;28;20185;-80
2023/12/12 00:59:02;;;;;;;9.57;2.20;;;8.00;99.90;;;;;;5100400;28;20171;-80
2023/12/12 01:01:28;;;;;;;8.07;2.13;;;8.00;99.90;;;;;;5102049;28;20173;-80
2023/12/12 01:03:53;;;;;;;7.40;2.40;;;8.00;99.90;;;;;;5100381;28;20257;-80
2023/12/12 01:06:26;;;;;;;6.07;1.73;;;8.00;99.90;;;;;;5099451;28;20197;-80
2023/12/12 01:08:52;;;;;;;9.00;2.80;;;8.00;99.90;;;;;;5099782;28;20718;-80
2023/12/12 01:11:18;;;;;;;11.27;2.40;;;8.00;99.90;;;;;;5101754;28;20181;-80
2023/12/12 01:13:45;;;;;;;12.87;2.57;;;7.90;99.90;;;;;;5102011;28;20194;-80
2023/12/12 01:16:10;;;;;;;12.73;2.30;;;7.90;99.90;;;;;;5101052;28;20202;-79
2023/12/12 01:18:36;;;;;;;12.07;2.67;;;7.80;99.90;;;;;;5102891;28;20174;-80
2023/12/12 01:21:02;;;;;;;9.87;2.97;;;7.80;99.90;;;;;;5103544;28;20170;-80
2023/12/12 01:23:55;;;;;;;13.20;3.03;;;7.80;99.90;;;;;;5101906;28;20170;-79
2023/12/12 01:26:21;;;;;;;10.60;2.50;;;7.80;99.90;;;;;;5097829;28;20190;-80
2023/12/12 01:28:48;;;;;;;14.17;2.60;;;7.70;99.90;;;;;;5101256;28;20178;-80
2023/12/12 01:31:17;;;;;;;10.93;2.83;;;7.70;99.90;;;;;;5097186;28;20201;-78
2023/12/12 01:33:43;;;;;;;11.90;2.57;;;7.70;99.90;;;;;;5101460;28;20228;-80
2023/12/12 01:36:09;;;;;;;13.07;2.80;;;7.70;99.90;;;;;;5114107;28;20619;-80
2023/12/12 01:38:35;;;;;;;10.03;2.90;;;7.70;99.90;;;;;;5114705;28;20181;-80
2023/12/12 01:41:01;;;;;;;12.67;2.67;;;7.70;99.90;;;;;;5109265;28;20174;-80
2023/12/12 01:43:30;;;;;;;6.83;2.13;;;7.70;99.90;;;;;;5103995;28;20176;-80
2023/12/12 01:46:08;;;;;;;9.23;2.33;;;7.70;99.90;;;;;;5103157;28;20233;-80
2023/12/12 01:48:35;;;;;;;10.50;2.50;;;7.70;99.90;;;;;;5103322;28;20254;-81
2023/12/12 01:51:01;;;;;;;9.23;2.33;;;7.70;99.90;;;;;;5103625;28;20181;-80
2023/12/12 01:53:33;;;;;;;10.07;2.23;;;7.60;99.90;;;;;;5103403;28;20242;-80
2023/12/12 01:56:00;;;;;;;9.43;2.13;;;7.60;99.90;;;;;;5108941;28;20194;-80
2023/12/12 01:58:26;;;;;;;9.03;2.83;;;7.60;99.90;;;;;;5111582;28;20200;-80
2023/12/12 02:00:53;;;;;;;9.23;2.10;;;7.60;99.90;;;;;;5112762;28;20206;-81
2023/12/12 02:03:19;;;;;;;9.13;2.77;;;7.50;99.90;;;;;;5112635;28;20174;-80
2023/12/12 02:05:47;;;;;;;11.97;2.57;;;7.50;99.90;;;;;;5108247;28;20206;-79
2023/12/12 02:08:13;;;;;;;9.57;2.43;;;7.50;99.90;;;;;;5101567;28;20205;-80
2023/12/12 02:10:39;;;;;;;9.13;2.13;;;7.50;99.90;;;;;;5108467;28;20186;-80
2023/12/12 02:13:05;;;;;;;11.27;2.63;;;7.40;99.90;;;;;;5107183;28;20661;-80
2023/12/12 02:15:30;;;;;;;5.90;3.00;;;7.40;99.90;;;;;;5099726;28;20198;-80
2023/12/12 02:17:56;;;;;;;9.80;2.50;;;7.30;99.90;;;;;;5097348;28;20209;-80
2023/12/12 02:20:22;;;;;;;13.73;2.37;;;7.30;99.90;;;;;;5097717;28;20170;-80
2023/12/12 02:22:47;;;;;;;7.63;2.20;;;7.30;99.90;;;;;;5099698;28;20201;-80
2023/12/12 02:25:16;;;;;;;11.73;2.47;;;7.30;99.90;;;;;;5098898;28;20178;-79
2023/12/12 02:27:42;;;;;;;16.10;3.33;;;7.20;99.90;;;;;;5098490;28;20272;-80
2023/12/12 02:30:08;;;;;;;14.97;3.30;;;7.10;99.90;;;;;;5096512;28;20607;-80
2023/12/12 02:32:34;;;;;;;14.53;2.70;;;7.10;99.90;;;;;;5096857;28;20194;-79
2023/12/12 02:35:00;;;;;;;16.27;2.60;;;7.00;99.90;;;;;;5099077;28;20206;-78
2023/12/12 02:37:26;;;;;;;12.13;2.63;;;7.00;99.90;;;;;;5099100;28;20687;-79
2023/12/12 02:39:51;;;;;;;15.27;2.57;;;7.00;99.90;;;;;;5097487;28;20179;-80
2023/12/12 02:42:17;;;;;;;17.40;3.47;;;7.00;99.90;;;;;;5098207;28;20188;-79
2023/12/12 02:44:42;;;;;;;15.47;3.47;;;7.00;99.90;;;;;;5098690;28;20170;-80
2023/12/12 02:47:08;;;;;;;17.47;3.33;;;7.00;99.90;;;;;;5099253;28;20198;-80
2023/12/12 02:49:34;;;;;;;19.77;3.50;;;7.00;99.90;;;;;;5099107;28;20171;-80
2023/12/12 02:51:59;;;;;;;13.70;3.10;;;7.00;99.90;;;;;;5097777;28;20166;-80
2023/12/12 02:54:25;;;;;;;13.03;3.63;;;7.00;99.90;;;;;;5098711;28;20215;-80
2023/12/12 02:56:50;;;;;;;17.10;3.47;;;7.00;99.90;;;;;;5099102;28;20196;-79
2023/12/12 02:59:16;;;;;;;13.30;3.13;;;7.00;99.90;;;;;;5099506;28;20268;-80
2023/12/12 03:01:42;;;;;;;15.40;3.37;;;7.00;99.90;;;;;;5097282;28;20178;-79
2023/12/12 03:04:07;;;;;;;13.33;3.60;;;7.10;99.90;;;;;;5098060;28;20175;-80
2023/12/12 03:06:33;;;;;;;13.40;2.70;;;7.10;99.90;;;;;;5097668;28;20232;-80
2023/12/12 03:08:58;;;;;;;13.93;3.47;;;7.10;99.90;;;;;;5097351;28;20178;-80
2023/12/12 03:11:24;;;;;;;21.80;3.80;;;7.00;99.90;;;;;;5100344;28;20174;-80
2023/12/12 03:13:49;;;;;;;15.87;3.13;;;7.00;99.90;;;;;;5098698;28;20182;-79
2023/12/12 03:16:15;;;;;;;16.57;3.87;;;7.00;99.90;;;;;;5093643;28;20202;-80
2023/12/12 03:18:40;;;;;;;15.00;3.30;;;7.10;99.90;;;;;;5090768;28;20181;-80
2023/12/12 03:21:06;;;;;;;13.83;3.37;;;7.10;99.90;;;;;;5092835;28;20628;-79
2023/12/12 03:23:32;;;;;;;16.40;3.37;;;7.00;99.90;;;;;;5096012;28;20173;-79
2023/12/12 03:25:57;;;;;;;16.80;2.80;;;7.00;99.90;;;;;;5096115;28;20264;-79
2023/12/12 03:28:24;;;;;;;17.77;3.33;;;7.00;99.90;;;;;;5096866;28;20270;-80
2023/12/12 03:30:50;;;;;;;18.57;3.90;;;7.00;99.90;;;;;;5098460;28;20278;-79
2023/12/12 03:33:15;;;;;;;18.27;3.53;;;7.00;99.90;;;;;;5096928;28;20185;-79
2023/12/12 03:35:41;;;;;;;14.60;2.60;;;7.00;99.90;;;;;;5098644;28;20198;-79
2023/12/12 03:38:06;;;;;;;21.40;3.07;;;7.00;99.90;;;;;;5099297;28;20202;-80
2023/12/12 03:40:32;;;;;;;11.97;2.93;;;7.00;99.90;;;;;;5100635;28;20175;-80
2023/12/12 03:42:57;;;;;;;17.70;3.57;;;7.10;99.90;;;;;;5100802;28;20167;-80
2023/12/12 03:45:23;;;;;;;18.33;3.00;;;6.90;99.90;;;;;;5102785;28;20261;-80
2023/12/12 03:47:48;;;;;;;18.90;3.47;;;6.80;99.90;;;;;;5101550;28;20221;-80
2023/12/12 03:50:14;;;;;;;16.73;3.47;;;6.80;99.90;;;;;;5099547;28;20313;-80
2023/12/12 03:52:40;;;;;;;17.83;2.50;;;6.80;99.90;;;;;;5100346;28;20183;-80
2023/12/12 03:55:07;;;;;;;16.43;3.53;;;6.70;99.90;;;;;;5100444;28;20756;-80
2023/12/12 03:57:32;;;;;;;19.73;3.00;;;6.70;99.90;;;;;;5100729;28;20213;-80
2023/12/12 03:59:58;;;;;;;12.73;3.30;;;6.70;99.90;;;;;;5102929;28;20166;-80
2023/12/12 04:02:23;;;;;;;17.57;3.90;;;6.60;99.90;;;;;;5101845;28;20170;-80
2023/12/12 04:04:49;;;;;;;17.80;3.33;;;6.60;99.90;;;;;;5101463;28;20170;-79
2023/12/12 04:07:16;;;;;;;16.23;3.30;;;6.60;99.90;;;;;;5103058;28;20247;-79
2023/12/12 04:09:42;;;;;;;17.30;3.23;;;6.60;99.90;;;;;;5102411;28;20182;-79
2023/12/12 04:12:07;;;;;;;13.80;3.10;;;6.50;99.90;;;;;;5103122;28;20170;-79
2023/12/12 04:14:33;;;;;;;11.60;2.30;;;6.60;99.90;;;;;;5102958;28;20181;-79
2023/12/12 04:16:59;;;;;;;15.40;3.17;;;6.50;99.90;;;;;;5103208;28;20190;-79
2023/12/12 04:19:24;;;;;;;13.20;2.60;;;6.60;99.90;;;;;;5102908;28;20177;-79
2023/12/12 04:21:50;;;;;;;10.17;2.80;;;6.50;99.90;;;;;;5107577;28;20197;-79
2023/12/12 04:24:16;;;;;;;12.97;2.60;;;6.50;99.90;;;;;;5116626;28;20681;-79
2023/12/12 04:26:43;;;;;;;15.10;3.13;;;6.50;99.90;;;;;;5111086;28;20209;-79
2023/12/12 04:29:08;;;;;;;16.43;3.23;;;6.50;99.90;;;;;;5097850;28;20209;-78
2023/12/12 04:31:35;;;;;;;24.13;3.67;;;6.50;99.90;;;;;;5099218;28;20231;-79
2023/12/12 04:34:00;;;;;;;23.90;3.30;;;6.40;99.90;;;;;;5098049;28;20210;-78
2023/12/12 04:36:26;;;;;;;21.67;3.33;;;6.50;99.90;;;;;;5098762;28;20743;-79
2023/12/12 04:38:52;;;;;;;15.97;3.10;;;6.40;99.90;;;;;;5099625;28;20171;-79
2023/12/12 04:41:17;;;;;;;14.30;3.07;;;6.40;99.90;;;;;;5100815;28;20170;-78
2023/12/12 04:43:43;;;;;;;21.37;3.77;;;6.40;99.90;;;;;;5100679;28;20220;-79
2023/12/12 04:46:09;;;;;;;12.47;3.00;;;6.40;99.90;;;;;;5099293;28;20174;-79
2023/12/12 04:48:35;;;;;;;12.03;2.77;;;6.40;99.90;;;;;;5099299;28;20197;-79
2023/12/12 04:51:02;;;;;;;16.67;2.90;;;6.40;99.90;;;;;;5099637;28;20273;-79
2023/12/12 04:53:27;;;;;;;15.00;3.27;;;6.40;99.90;;;;;;5101541;28;20170;-79
2023/12/12 04:55:53;;;;;;;16.63;3.13;;;6.40;99.90;;;;;;5100087;28;20244;-79
2023/12/12 04:58:18;;;;;;;21.70;3.37;;;6.40;99.90;;;;;;5097667;28;20209;-79
2023/12/12 05:00:44;;;;;;;13.90;3.33;;;6.40;99.90;;;;;;5094401;28;20178;-78
2023/12/12 05:03:09;;;;;;;19.00;3.47;;;6.40;99.90;;;;;;5095304;28;20708;-79
2023/12/12 05:05:35;;;;;;;15.57;3.17;;;6.40;99.90;;;;;;5098517;28;20198;-79
2023/12/12 05:08:00;;;;;;;17.07;3.30;;;6.40;99.90;;;;;;5098987;28;20186;-79
2023/12/12 05:10:27;;;;;;;20.53;3.53;;;6.40;99.90;;;;;;5099294;28;20178;-79
2023/12/12 05:12:53;;;;;;;14.57;2.63;;;6.40;99.90;;;;;;5101069;28;20169;-79
2023/12/12 05:15:18;;;;;;;21.63;3.27;;;6.60;99.90;;;;;;5102487;28;20194;-79
2023/12/12 05:17:44;;;;;;;13.63;2.60;;;6.40;99.90;;;;;;5102551;28;20618;-79
2023/12/12 05:20:11;;;;;;;17.43;3.40;;;6.40;99.90;;;;;;5101767;28;20209;-79
2023/12/12 05:22:37;;;;;;;10.47;2.80;;;6.40;99.90;;;;;;5100734;28;20230;-79
2023/12/12 05:25:05;;;;;;;16.40;3.20;;;6.40;99.90;;;;;;5099564;28;20261;-81
2023/12/12 05:27:30;;;;;;;10.37;2.40;;;6.40;99.90;;;;;;5100000;28;20218;-80
2023/12/12 05:29:56;;;;;;;7.80;2.63;;;6.40;99.90;;;;;;5093130;28;20235;-80
2023/12/12 05:32:21;;;;;;;15.77;2.73;;;6.40;99.90;;;;;;5092510;28;20366;-79
2023/12/12 05:34:47;;;;;;;18.03;3.13;;;6.40;99.90;;;;;;5093748;28;20206;-80
2023/12/12 05:37:12;;;;;;;14.30;2.30;;;6.40;99.90;;;;;;5095263;28;20190;-80
2023/12/12 05:39:38;;;;;;;17.27;2.90;;;6.40;99.90;;;;;;5093824;28;20185;-80
2023/12/12 05:42:03;;;;;;;11.50;2.70;;;6.40;99.90;;;;;;5094222;28;20194;-80
2023/12/12 05:44:29;;;;;;;10.47;2.90;;;6.40;99.90;;;;;;5097039;28;20262;-79
2023/12/12 05:46:54;;;;;;;15.67;3.00;;;6.40;99.90;;;;;;5097169;28;20237;-79
2023/12/12 05:49:21;;;;;;;15.17;2.50;;;6.50;99.90;;;;;;5098612;28;20177;-79
2023/12/12 05:51:47;;;;;;;11.33;2.37;;;6.50;99.90;;;;;;5099260;28;20193;-80
2023/12/12 05:54:12;;;;;;;10.93;2.80;;;6.50;99.90;;;;;;5098330;28;20166;-79
2023/12/12 05:56:38;;;;;;;12.60;2.00;;;6.50;99.90;;;;;;5100031;28;20206;-78
2023/12/12 05:59:05;;;;;;;13.33;2.87;;;6.50;99.90;;;;;;5102186;28;20173;-79
2023/12/12 06:01:30;;;;;;;16.70;3.30;;;6.50;99.90;;;;;;5102196;28;20196;-80
2023/12/12 06:03:56;;;;;;;13.80;2.80;;;6.50;99.90;;;;;;5106217;28;20238;-77
2023/12/12 06:06:21;;;;;;;16.00;3.27;;;6.50;99.90;;;;;;5114023;28;20198;-79
2023/12/12 06:08:47;;;;;;;16.83;3.53;;;6.60;99.90;;;;;;5101930;28;20182;-78
2023/12/12 06:11:12;;;;;;;19.07;3.73;;;6.60;99.90;;;;;;5095221;28;20178;-78
2023/12/12 06:13:38;;;;;;;15.07;3.50;;;6.60;99.90;;;;;;5096661;28;20269;-78
2023/12/12 06:16:04;;;;;;;15.73;3.63;;;6.60;99.90;;;;;;5097181;28;20277;-78
2023/12/12 06:18:29;;;;;;;20.93;4.67;;;6.70;99.90;;;;;;5097647;28;20249;-78
2023/12/12 06:20:55;;;;;;;16.10;3.47;;;6.70;99.90;;;;;;5097492;28;20226;-79
2023/12/12 06:23:20;;;;;;;18.07;3.90;;;6.70;99.90;;;;;;5095943;28;20171;-78
2023/12/12 06:25:47;;;;;;;31.20;4.07;;;6.70;99.90;;;;;;5096863;28;20174;-79
2023/12/12 06:28:12;;;;;;;20.57;4.57;;;6.70;99.90;;;;;;5097468;28;20614;-78
2023/12/12 06:30:38;;;;;;;20.87;3.63;;;6.80;99.90;;;;;;5095410;28;20282;-79
2023/12/12 06:33:03;;;;;;;21.70;4.10;;;6.80;99.90;;;;;;5096941;28;20246;-78
2023/12/12 06:35:29;;;;;;;23.07;4.80;;;6.80;99.90;;;;;;5095437;28;20213;-79
2023/12/12 06:37:54;;;;;;;20.47;4.23;;;6.90;99.90;;;;;;5095216;28;20197;-78
2023/12/12 06:40:21;;;;;;;27.40;5.33;;;6.90;99.90;;;;;;5095786;28;20219;-78
2023/12/12 06:42:47;;;;;;;25.43;4.30;;;6.90;99.90;;;;;;5102202;28;20238;-79
2023/12/12 06:45:13;;;;;;;24.90;5.07;;;6.90;99.90;;;;;;5112594;28;20178;-79
2023/12/12 06:47:38;;;;;;;23.20;4.63;;;6.90;99.90;;;;;;5100034;28;20209;-79
2023/12/12 06:50:04;;;;;;;28.77;4.57;;;6.90;99.90;;;;;;5101288;28;20201;-79
2023/12/12 06:52:31;;;;;;;20.87;4.80;;;7.00;99.90;;;;;;5099403;28;20650;-78
2023/12/12 06:54:56;;;;;;;25.97;4.90;;;7.00;99.90;;;;;;5098659;28;20582;-79
2023/12/12 06:57:22;;;;;;;19.07;4.10;;;7.00;99.90;;;;;;5101429;28;20220;-79
2023/12/12 06:59:48;;;;;;;24.03;4.43;;;7.00;99.90;;;;;;5103844;28;20239;-78
2023/12/12 07:02:14;;;;;;;32.47;5.33;;;7.10;99.90;;;;;;5102670;28;20280;-79
2023/12/12 07:04:40;;;;;;;27.03;4.67;;;7.00;99.90;;;;;;5102639;28;20170;-79
2023/12/12 07:07:05;;;;;;;20.30;4.17;;;7.00;99.90;;;;;;5099749;28;20681;-78
2023/12/12 07:09:31;;;;;;;28.00;5.10;;;7.10;99.90;;;;;;5099723;28;20217;-79
2023/12/12 07:11:57;;;;;;;25.00;4.30;;;7.10;99.90;;;;;;5097419;28;20178;-78
2023/12/12 07:14:22;;;;;;;20.83;5.13;;;7.10;99.90;;;;;;5096328;28;20170;-78
2023/12/12 07:16:48;;;;;;;27.87;4.90;;;7.10;99.90;;;;;;5096252;28;20197;-79
2023/12/12 07:19:13;;;;;;;25.87;5.30;;;7.10;99.90;;;;;;5096899;28;20185;-78
2023/12/12 07:21:41;;;;;;;25.47;4.57;;;7.20;99.90;;;;;;5097317;28;20185;-77
2023/12/12 07:24:07;;;;;;;24.70;4.67;;;7.20;99.90;;;;;;5097376;28;20289;-78
2023/12/12 07:26:33;;;;;;;21.67;4.67;;;7.20;99.90;;;;;;5096080;28;20673;-78
2023/12/12 07:28:59;;;;;;;24.40;4.27;;;7.20;99.90;;;;;;5095927;28;20174;-78
2023/12/12 07:31:25;;;;;;;24.20;4.63;;;7.20;99.90;;;;;;5097207;28;20194;-78
2023/12/12 07:33:50;;;;;;;18.07;4.07;;;7.30;99.90;;;;;;5098510;28;20178;-79
2023/12/12 07:36:16;;;;;;;19.33;4.50;;;7.30;99.90;;;;;;5100576;28;20201;-78
2023/12/12 07:38:41;;;;;;;26.17;5.10;;;7.30;99.90;;;;;;5099842;28;20186;-79
2023/12/12 07:41:09;;;;;;;26.30;4.20;;;7.30;99.90;;;;;;5101351;28;20634;-78
2023/12/12 07:43:34;;;;;;;26.53;4.63;;;7.40;99.90;;;;;;5100979;28;20194;-79
2023/12/12 07:46:00;;;;;;;23.87;4.53;;;7.30;99.90;;;;;;5099952;28;20673;-78
2023/12/12 07:48:25;;;;;;;19.50;4.03;;;7.30;99.90;;;;;;5099731;28;20190;-79
2023/12/12 07:50:51;;;;;;;22.57;5.10;;;7.40;99.90;;;;;;5101449;28;20178;-78
2023/12/12 07:53:17;;;;;;;34.73;5.40;;;7.40;99.90;;;;;;5099953;28;20186;-78
2023/12/12 07:55:43;;;;;;;23.13;4.57;;;7.40;99.90;;;;;;5099932;28;20202;-79
2023/12/12 07:58:09;;;;;;;21.47;4.77;;;7.40;99.90;;;;;;5101890;28;20291;-78
2023/12/12 08:00:34;;;;;;;27.50;4.67;;;7.50;99.90;;;;;;5102248;28;20688;-79
2023/12/12 08:03:01;;;;;;;23.57;5.13;;;7.50;99.90;;;;;;5101268;28;20167;-79
2023/12/12 08:05:27;;;;;;;25.23;4.97;;;7.50;99.90;;;;;;5102275;28;20181;-79
2023/12/12 08:07:52;;;;;;;24.80;4.87;;;7.50;99.90;;;;;;5100747;28;20194;-79
2023/12/12 08:10:18;;;;;;;30.40;4.60;;;7.50;99.90;;;;;;5101717;28;20174;-79
2023/12/12 08:12:43;;;;;;;28.53;4.77;;;7.60;99.90;;;;;;5101090;28;20174;-79
2023/12/12 08:15:09;;;;;;;21.17;4.63;;;7.60;99.90;;;;;;5101417;28;20221;-78
2023/12/12 08:17:35;;;;;;;28.20;5.90;;;7.60;99.90;;;;;;5102467;28;20201;-79
2023/12/12 08:20:00;;;;;;;24.17;5.07;;;7.60;99.90;;;;;;5103062;28;20194;-79
2023/12/12 08:22:26;;;;;;;27.17;5.17;;;7.70;99.90;;;;;;5103114;28;20237;-79
2023/12/12 08:24:54;;;;;;;21.50;4.37;;;7.70;99.90;;;;;;5103256;28;20166;-79
2023/12/12 08:27:19;;;;;;;19.20;4.53;;;7.70;99.90;;;;;;5104604;28;20269;-78
2023/12/12 08:29:46;;;;;;;23.77;4.70;;;7.70;99.90;;;;;;5117718;28;20166;-77
2023/12/12 08:32:12;;;;;;;24.13;4.93;;;7.70;99.90;;;;;;5117270;28;20197;-78
2023/12/12 08:34:38;;;;;;;28.83;5.03;;;7.80;99.90;;;;;;5114919;28;20186;-78
2023/12/12 08:37:03;;;;;;;24.90;5.30;;;7.80;99.90;;;;;;5099312;28;20236;-79
2023/12/12 08:39:30;;;;;;;21.87;4.30;;;7.80;99.90;;;;;;5100065;28;20173;-78
2023/12/12 08:41:57;;;;;;;17.57;4.37;;;7.80;99.90;;;;;;5099179;28;20226;-79
2023/12/12 08:44:23;;;;;;;21.37;4.13;;;7.90;99.90;;;;;;5098199;28;20647;-78
2023/12/12 08:46:49;;;;;;;29.80;5.07;;;7.90;99.90;;;;;;5097366;28;20194;-78
2023/12/12 08:49:17;;;;;;;21.17;4.73;;;7.90;99.90;;;;;;5099284;28;20266;-78
2023/12/12 08:51:43;;;;;;;24.27;5.37;;;7.90;99.90;;;;;;5099141;28;20223;-78
2023/12/12 08:54:09;;;;;;;19.20;4.23;;;7.90;99.90;;;;;;5098330;28;20179;-79
2023/12/12 08:56:36;;;;;;;20.77;4.57;;;8.00;99.90;;;;;;5097452;28;20229;-78
2023/12/12 08:59:02;;;;;;;18.60;4.03;;;8.00;99.90;;;;;;5097425;28;20174;-78
2023/12/12 09:01:28;;;;;;;18.17;4.20;;;8.00;99.90;;;;;;5099092;28;20163;-79
2023/12/12 09:03:53;;;;;;;22.63;4.50;;;8.00;99.90;;;;;;5099034;28;20509;-78
2023/12/12 09:06:19;;;;;;;17.40;4.40;;;8.10;99.90;;;;;;5097795;28;20261;-78
2023/12/12 09:08:44;;;;;;;22.03;4.57;;;8.10;99.90;;;;;;5098379;28;20174;-78
2023/12/12 09:11:10;;;;;;;24.70;4.90;;;8.20;99.90;;;;;;5099193;28;20173;-79
2023/12/12 09:13:37;;;;;;;16.20;4.27;;;8.20;99.90;;;;;;5098070;28;20227;-79
2023/12/12 09:16:02;;;;;;;18.70;4.57;;;8.30;99.90;;;;;;5112187;28;20661;-78
2023/12/12 09:18:28;;;;;;;23.37;5.07;;;8.30;99.90;;;;;;5102299;28;20221;-79
2023/12/12 09:20:53;;;;;;;26.63;4.87;;;8.40;99.90;;;;;;5095854;28;20253;-78
2023/12/12 09:23:20;;;;;;;12.00;3.30;;;8.40;99.90;;;;;;5096367;28;20173;-78
2023/12/12 09:25:46;;;;;;;20.37;4.33;;;8.50;99.90;;;;;;5093032;28;20628;-77
2023/12/12 09:28:12;;;;;;;23.67;5.17;;;8.50;99.90;;;;;;5093294;28;20217;-78
2023/12/12 09:30:37;;;;;;;15.80;4.23;;;8.60;99.90;;;;;;5095128;28;20584;-77
2023/12/12 09:33:03;;;;;;;26.47;4.67;;;8.70;99.90;;;;;;5096960;28;20240;-78
2023/12/12 09:35:28;;;;;;;23.57;4.07;;;8.70;99.90;;;;;;5095574;28;20221;-77
2023/12/12 09:37:54;;;;;;;22.47;4.17;;;8.70;99.90;;;;;;5096316;28;20198;-77
2023/12/12 09:40:20;;;;;;;16.63;3.90;;;8.80;99.90;;;;;;5097006;28;20174;-77
2023/12/12 09:42:48;;;;;;;19.93;4.60;;;8.80;99.90;;;;;;5096902;28;20221;-78
2023/12/12 09:45:16;;;;;;;21.37;4.37;;;8.80;99.90;;;;;;5096927;28;20206;-77
2023/12/12 09:47:43;;;;;;;22.63;4.60;;;8.90;99.90;;;;;;5093791;28;20217;-77
2023/12/12 09:50:10;;;;;;;17.40;4.10;;;9.00;99.90;;;;;;5094204;28;20174;-78
2023/12/12 09:52:36;;;;;;;15.37;4.00;;;9.00;99.90;;;;;;5095851;28;20247;-77
2023/12/12 09:55:03;;;;;;;23.23;4.03;;;9.10;99.90;;;;;;5093783;28;20693;-77
2023/12/12 09:57:30;;;;;;;21.80;3.40;;;9.10;99.90;;;;;;5093896;28;20194;-77
2023/12/12 09:59:58;;;;;;;13.60;3.27;;;9.20;99.90;;;;;;5095381;28;20253;-77
2023/12/12 10:02:27;;;;;;;15.13;3.63;;;9.30;99.90;;;;;;5093397;28;20208;-77
2023/12/12 10:04:54;;;;;;;14.23;3.30;;;9.30;99.90;;;;;;5095454;28;20672;-77
2023/12/12 10:07:24;;;;;;;14.57;3.87;;;9.40;99.90;;;;;;5093642;28;20198;-77
2023/12/12 10:09:49;;;;;;;16.70;4.47;;;9.40;99.90;;;;;;5094365;28;20216;-77
2023/12/12 10:12:15;;;;;;;15.00;3.73;;;9.40;99.90;;;;;;5094946;28;20194;-77
2023/12/12 10:14:47;;;;;;;15.67;3.70;;;9.40;99.90;;;;;;5094416;28;20178;-77
2023/12/12 10:17:14;;;;;;;17.13;3.60;;;9.60;99.90;;;;;;5092933;28;20276;-77
2023/12/12 10:19:40;;;;;;;15.50;3.70;;;9.40;99.90;;;;;;5093140;28;20219;-77
2023/12/12 10:22:06;;;;;;;17.50;3.63;;;9.50;99.90;;;;;;5094618;28;20249;-77
2023/12/12 10:24:33;;;;;;;14.40;3.23;;;9.50;99.90;;;;;;5093300;28;20181;-77
2023/12/12 10:26:58;;;;;;;16.40;3.20;;;9.50;99.90;;;;;;5095218;28;20662;-77
2023/12/12 10:29:25;;;;;;;16.70;3.57;;;9.50;99.90;;;;;;5095471;28;20198;-77
2023/12/12 10:31:51;;;;;;;14.63;3.40;;;9.60;99.90;;;;;;5094568;28;20255;-77
2023/12/12 10:34:17;;;;;;;12.53;2.80;;;9.70;99.90;;;;;;5096932;28;20178;-77
2023/12/12 10:36:46;;;;;;;15.13;3.10;;;9.70;99.90;;;;;;5097955;28;20206;-77
2023/12/12 10:39:13;;;;;;;12.13;2.73;;;9.70;99.90;;;;;;5098259;28;20211;-77
2023/12/12 10:41:38;;;;;;;16.40;3.40;;;9.80;99.90;;;;;;5096873;28;20174;-77
2023/12/12 10:44:08;;;;;;;16.30;3.07;;;9.80;99.90;;;;;;5098764;28;20226;-77
2023/12/12 10:46:37;;;;;;;12.33;2.73;;;9.80;99.90;;;;;;5098702;28;20166;-78
2023/12/12 10:49:02;;;;;;;13.30;3.13;;;9.80;99.90;;;;;;5097265;28;20174;-77
2023/12/12 10:51:28;;;;;;;14.23;3.03;;;9.80;99.90;;;;;;5098894;28;20257;-77
2023/12/12 10:53:55;;;;;;;10.70;2.67;;;9.80;99.90;;;;;;5097208;28;20170;-77
2023/12/12 10:56:21;;;;;;;7.30;2.33;;;9.80;99.90;;;;;;5097158;28;20194;-77
2023/12/12 10:58:48;;;;;;;13.60;3.10;;;9.80;99.90;;;;;;5096345;28;20243;-77
2023/12/12 11:01:15;;;;;;;15.43;3.37;;;9.90;99.90;;;;;;5097068;28;20171;-77
2023/12/12 11:03:41;;;;;;;14.23;2.90;;;9.90;99.90;;;;;;5096299;28;20174;-77
2023/12/12 11:06:08;;;;;;;8.33;3.20;;;10.00;99.90;;;;;;5097712;28;20620;-77
2023/12/12 11:08:34;;;;;;;12.13;2.90;;;10.00;99.90;;;;;;5097429;28;20668;-77
2023/12/12 11:11:05;;;;;;;17.60;3.47;;;10.00;99.90;;;;;;5106440;28;20167;-78
2023/12/12 11:13:34;;;;;;;12.77;2.93;;;10.00;99.90;;;;;;5101995;28;20158;-77
2023/12/12 11:16:01;;;;;;;12.33;3.23;;;10.10;99.90;;;;;;5100188;28;20202;-78
2023/12/12 11:18:26;;;;;;;11.87;2.60;;;10.10;99.90;;;;;;5100843;28;20233;-78
2023/12/12 11:20:52;;;;;;;13.70;2.90;;;10.10;99.90;;;;;;5100745;28;20162;-78
2023/12/12 11:23:55;;;;;;;14.00;3.13;;;10.20;99.90;;;;;;5100930;28;20665;-78
2023/12/12 11:26:24;;;;;;;12.07;3.43;;;10.30;99.90;;;;;;5100741;28;20154;-78
2023/12/12 11:28:50;;;;;;;10.60;2.70;;;10.30;99.90;;;;;;5098776;28;20178;-77
2023/12/12 11:31:33;;;;;;;11.10;3.00;;;10.40;99.90;;;;;;5100081;28;20196;-78
2023/12/12 11:34:04;;;;;;;10.27;2.37;;;10.50;99.90;;;;;;5100555;28;20552;-77
2023/12/12 11:36:51;;;;;;;12.13;2.37;;;10.50;99.90;;;;;;5098628;28;20233;-77
2023/12/12 11:39:29;;;;;;;13.13;2.67;;;10.60;99.90;;;;;;5099300;28;20174;-77
2023/12/12 11:41:56;;;;;;;14.70;3.03;;;10.60;99.90;;;;;;5100539;28;20154;-77
2023/12/12 11:44:22;;;;;;;11.63;3.00;;;10.70;99.90;;;;;;5104831;28;20654;-79
2023/12/12 11:46:50;;;;;;;9.77;2.53;;;10.60;99.90;;;;;;5107995;28;20194;-78
2023/12/12 11:49:20;;;;;;;12.87;2.70;;;10.70;99.90;;;;;;5112374;28;20711;-78
2023/12/12 11:51:46;;;;;;;10.53;2.50;;;10.60;99.90;;;;;;5100401;28;20707;-77
2023/12/12 11:54:23;;;;;;;9.27;2.43;;;10.70;99.90;;;;;;5116350;28;20540;-78
2023/12/12 11:56:58;;;;;;;8.70;2.33;;;10.70;99.90;;;;;;5122657;28;20260;-78
2023/12/12 11:59:25;;;;;;;9.07;2.40;;;10.70;99.90;;;;;;5117703;28;20173;-77
2023/12/12 12:01:51;;;;;;;12.33;2.40;;;10.70;99.90;;;;;;5119952;28;20162;-77
2023/12/12 12:04:17;;;;;;;12.03;2.83;;;10.70;99.90;;;;;;5119845;28;20174;-78
2023/12/12 12:06:43;;;;;;;10.53;2.80;;;10.60;99.90;;;;;;5117380;28;20189;-76
2023/12/12 12:09:10;;;;;;;11.97;2.47;;;10.60;99.90;;;;;;5115482;28;20636;-78
2023/12/12 12:11:39;;;;;;;9.87;2.27;;;10.50;99.90;;;;;;5116928;28;20169;-77
2023/12/12 12:14:06;;;;;;;13.83;2.73;;;10.50;99.90;;;;;;5116280;28;20181;-77
2023/12/12 12:16:32;;;;;;;11.03;2.63;;;10.50;99.90;;;;;;5119612;28;20197;-78
2023/12/12 12:18:57;;;;;;;8.73;2.43;;;10.50;99.90;;;;;;5118141;28;20205;-78
2023/12/12 12:21:26;;;;;;;11.30;2.43;;;10.50;99.90;;;;;;5116640;28;20166;-77
2023/12/12 12:23:52;;;;;;;11.57;2.60;;;10.50;99.90;;;;;;5117385;28;20177;-78
2023/12/12 12:26:19;;;;;;;8.40;2.70;;;10.40;99.90;;;;;;5116567;28;20219;-79
2023/12/12 12:28:45;;;;;;;10.57;2.67;;;10.40;99.90;;;;;;5115624;28;20212;-78
2023/12/12 12:31:10;;;;;;;11.00;2.27;;;10.30;99.90;;;;;;5113545;28;20193;-77
2023/12/12 12:33:38;;;;;;;8.20;2.70;;;10.30;99.90;;;;;;5116318;28;20176;-77
2023/12/12 12:36:05;;;;;;;9.77;2.30;;;10.30;99.90;;;;;;5117424;28;20269;-78
2023/12/12 12:38:31;;;;;;;10.87;2.40;;;10.20;99.90;;;;;;5129317;28;20186;-78
2023/12/12 12:40:57;;;;;;;11.30;2.07;;;10.20;99.90;;;;;;5130475;28;20173;-78
2023/12/12 12:43:23;;;;;;;10.23;2.10;;;10.20;99.90;;;;;;5121114;28;20192;-78